• Join FlightAware (Why Join?)
  • Login
  • US Flag 
07:51AM EDT


 

Airport Tracker/Info


-or-


 

Live Flight TrackerFlight Track Log ✈ SLI2073 ✈ 03-Jul-2014 ✈ MMLP / LAP - MMMX / MEX

Flight Track Log - Related Links

Times and Time Zones

All times are in EDT time to prevent confusion due to time zone crossing. See the SLI2073 flight status page for this flight to view local times or setup timezone preferences in your user account.

Time Position Orientation Groundspeed Altitude Reporting Facility
EDT Latitude Longitude Course Direction KTS MPH feet Rate Location/Type
08:43PM 23.8170 -109.6637 112° Southeast  Level Estimated
08:44PM 23.7741 -109.5475 112° Southeast  Level Estimated
08:45PM 23.7311 -109.4314 112° Southeast  Level Estimated
08:46PM 23.6880 -109.3154 112° Southeast  Level Estimated
08:47PM 23.6448 -109.1994 112° Southeast  Level Estimated
08:48PM 23.6015 -109.0835 112° Southeast  Level Estimated
08:49PM 23.5582 -108.9677 112° Southeast  Level Estimated
08:50PM 23.5147 -108.8520 112° Southeast  Level Estimated
08:51PM 23.4712 -108.7364 112° Southeast  Level Estimated
08:52PM 23.4276 -108.6208 112° Southeast  Level Estimated
08:53PM 23.3839 -108.5053 112° Southeast  Level Estimated
08:54PM 23.3402 -108.3898 112° Southeast  Level Estimated
08:55PM 23.2963 -108.2745 112° Southeast  Level Estimated
08:56PM 23.2523 -108.1592 113° Southeast  Level Estimated
08:57PM 23.2083 -108.0440 113° Southeast  Level Estimated
08:58PM 23.1642 -107.9289 113° Southeast  Level Estimated
08:59PM 23.1200 -107.8139 113° Southeast  Level Estimated
09:00PM 23.0757 -107.6989 113° Southeast  Level Estimated
09:01PM 23.0313 -107.5840 113° Southeast  Level Estimated
09:02PM 22.9869 -107.4692 113° Southeast  Level Estimated
09:03PM 22.9424 -107.3544 113° Southeast  Level Estimated
09:04PM 22.8978 -107.2398 113° Southeast  Level Estimated
09:05PM 22.8531 -107.1252 113° Southeast  Level Estimated
09:06PM 22.8083 -107.0107 113° Southeast  Level Estimated
09:07PM 22.7634 -106.8962 113° Southeast  Level Estimated
09:08PM 22.7185 -106.7819 113° Southeast  Level Estimated
09:09PM 22.6735 -106.6676 113° Southeast  Level Estimated
09:10PM 22.6283 -106.5534 113° Southeast  Level Estimated
09:11PM 22.5832 -106.4392 113° Southeast  Level Estimated
09:12PM 22.5379 -106.3252 113° Southeast  Level Estimated
09:13PM 22.4926 -106.2112 113° Southeast  Level Estimated
09:14PM 22.4471 -106.0973 113° Southeast  Level Estimated
09:15PM 22.4016 -105.9834 113° Southeast  Level Estimated
09:16PM 22.3561 -105.8697 113° Southeast  Level Estimated
09:17PM 22.3104 -105.7560 113° Southeast  Level Estimated
09:18PM 22.2646 -105.6423 113° Southeast  Level Estimated
09:19PM 22.2188 -105.5288 114° Southeast  Level Estimated
09:20PM 22.1729 -105.4153 114° Southeast  Level Estimated
09:21PM 22.1269 -105.3019 114° Southeast  Level Estimated
09:22PM 22.0809 -105.1886 114° Southeast  Level Estimated
09:23PM 22.0347 -105.0754 114° Southeast  Level Estimated
09:24PM 21.9885 -104.9622 114° Southeast  Level Estimated
09:25PM 21.9422 -104.8491 114° Southeast  Level Estimated
09:26PM 21.8959 -104.7361 114° Southeast  Level Estimated
09:27PM 21.8494 -104.6231 114° Southeast  Level Estimated
09:28PM 21.8029 -104.5102 114° Southeast  Level Estimated
09:29PM 21.7563 -104.3974 114° Southeast  Level Estimated
09:30PM 21.7096 -104.2847 114° Southeast  Level Estimated
09:31PM 21.6629 -104.1721 114° Southeast  Level Estimated
09:32PM 21.6161 -104.0595 114° Southeast  Level Estimated
09:33PM 21.5692 -103.9470 114° Southeast  Level Estimated
09:34PM 21.5222 -103.8345 114° Southeast  Level Estimated
09:35PM 21.4751 -103.7222 114° Southeast  Level Estimated
09:36PM 21.4280 -103.6098 114° Southeast  Level Estimated
09:37PM 21.3808 -103.4976 114° Southeast  Level Estimated
09:38PM 21.3335 -103.3855 114° Southeast  Level Estimated
09:39PM 21.2862 -103.2734 114° Southeast  Level Estimated
09:40PM 21.2387 -103.1614 114° Southeast  Level Estimated
09:41PM 21.1912 -103.0495 114° Southeast  Level Estimated
09:42PM 21.1437 -102.9376 114° Southeast  Level Estimated
09:43PM 21.0960 -102.8258 115° Southeast  Level Estimated
09:44PM 21.0483 -102.7141 115° Southeast  Level Estimated
09:45PM 21.0005 -102.6025 115° Southeast  Level Estimated
09:46PM 20.9526 -102.4909 115° Southeast  Level Estimated
09:47PM 20.9047 -102.3794 115° Southeast  Level Estimated
09:48PM 20.8567 -102.2680 115° Southeast  Level Estimated
09:49PM 20.8086 -102.1566 115° Southeast  Level Estimated
09:50PM 20.7604 -102.0453 115° Southeast  Level Estimated
09:51PM 20.7122 -101.9341 115° Southeast  Level Estimated
09:52PM 20.6639 -101.8229 115° Southeast  Level Estimated
09:53PM 20.6155 -101.7119 115° Southeast  Level Estimated
09:54PM 20.5671 -101.6009 115° Southeast  Level Estimated
09:55PM 20.5186 -101.4899 115° Southeast  Level Estimated
09:56PM 20.4700 -101.3791 115° Southeast  Level Estimated
09:57PM 20.4214 -101.2683 115° Southeast  Level Estimated
09:58PM 20.3726 -101.1575 115° Southeast  Level Estimated
09:59PM 20.3239 -101.0469 115° Southeast  Level Estimated
10:00PM 20.2750 -100.9363 115° Southeast  Level Estimated
10:01PM 20.2261 -100.8258 115° Southeast  Level Estimated
10:02PM 20.1771 -100.7153 115° Southeast  Level Estimated
10:03PM 20.1280 -100.6050 115° Southeast  Level Estimated
10:04PM 20.0789 -100.4947 115° Southeast  Level Estimated
10:05PM 20.0296 -100.3844 115° Southeast  Level Estimated
10:06PM 19.9804 -100.2742 115° Southeast  Level Estimated
10:07PM 19.9310 -100.1641 115° Southeast  Level Estimated
10:08PM 19.8816 -100.0541 116° Southeast  Level Estimated
10:09PM 19.8321 -99.9442 116° Southeast  Level Estimated
10:10PM 19.7826 -99.8343 116° Southeast  Level Estimated
10:11PM 19.7330 -99.7244 116° Southeast  Level Estimated
10:12PM 19.6833 -99.6147 116° Southeast  Level Estimated
10:13PM 19.6336 -99.5050 116° Southeast  Level Estimated
10:14PM 19.5838 -99.3954 116° Southeast  Level Estimated
10:15PM 19.5339 -99.2858 116° Southeast  Level Estimated
10:16PM 19.4839 -99.1763 116° Southeast  Level Estimated
10:17PM 19.4363 -99.0721 116° Southeast  Level Estimated
10:18PM 19.4363 -99.0721 North  Level Estimated
10:19PM 19.4363 -99.0721 North  Level Estimated
10:20PM 19.4363 -99.0721 North  Level Estimated
10:21PM 19.4363 -99.0721 North  Level Estimated
10:22PM 19.4363 -99.0721 North  Level Estimated
10:23PM 19.4363 -99.0721 North  Level Estimated
10:24PM 19.4363 -99.0721 North  Level Estimated
10:25PM 19.4363 -99.0721 North  Level Estimated
10:26PM 19.4363 -99.0721 North  Level Estimated
10:27PM 19.4363 -99.0721 North  Level Estimated
10:28PM 19.4363 -99.0721 North  Level Estimated
10:29PM 19.4363 -99.0721 North  Level Estimated
10:30PM 19.4363 -99.0721 North  Level Estimated
10:31PM 19.4363 -99.0721 North  Level Estimated
10:32PM 19.4363 -99.0721 North  Level Estimated
10:33PM 19.4363 -99.0721 North  Level Estimated